sensor_id;sensor_type;location;lat;lon;timestamp;P1;durP1;ratioP1;P2;durP2;ratioP2
2838;SDS011;1427;48.510;9.060;2024-01-25T00:01:09;45.37;;;1.40;;
2838;SDS011;1427;48.510;9.060;2024-01-25T00:03:38;45.17;;;1.47;;
2838;SDS011;1427;48.510;9.060;2024-01-25T00:06:06;44.87;;;1.30;;
2838;SDS011;1427;48.510;9.060;2024-01-25T00:08:35;45.20;;;1.57;;
2838;SDS011;1427;48.510;9.060;2024-01-25T00:11:03;46.17;;;2.40;;
2838;SDS011;1427;48.510;9.060;2024-01-25T00:13:31;46.20;;;1.67;;
2838;SDS011;1427;48.510;9.060;2024-01-25T00:15:59;49.70;;;2.10;;
2838;SDS011;1427;48.510;9.060;2024-01-25T00:18:28;48.47;;;2.53;;
2838;SDS011;1427;48.510;9.060;2024-01-25T00:20:58;48.67;;;2.30;;
2838;SDS011;1427;48.510;9.060;2024-01-25T00:23:26;46.43;;;1.83;;
2838;SDS011;1427;48.510;9.060;2024-01-25T00:25:54;45.00;;;1.50;;
2838;SDS011;1427;48.510;9.060;2024-01-25T00:28:24;45.07;;;1.40;;
2838;SDS011;1427;48.510;9.060;2024-01-25T00:30:53;44.80;;;1.40;;
2838;SDS011;1427;48.510;9.060;2024-01-25T00:33:21;45.27;;;1.63;;
2838;SDS011;1427;48.510;9.060;2024-01-25T00:35:49;55.83;;;2.73;;
2838;SDS011;1427;48.510;9.060;2024-01-25T00:38:19;46.20;;;1.87;;
2838;SDS011;1427;48.510;9.060;2024-01-25T00:40:48;47.50;;;2.20;;
2838;SDS011;1427;48.510;9.060;2024-01-25T00:43:17;52.33;;;2.90;;
2838;SDS011;1427;48.510;9.060;2024-01-25T00:45:45;45.00;;;1.63;;
2838;SDS011;1427;48.510;9.060;2024-01-25T00:48:14;47.50;;;2.60;;
2838;SDS011;1427;48.510;9.060;2024-01-25T00:50:42;44.90;;;1.23;;
2838;SDS011;1427;48.510;9.060;2024-01-25T00:53:11;50.90;;;2.63;;
2838;SDS011;1427;48.510;9.060;2024-01-25T00:55:41;48.00;;;2.80;;
2838;SDS011;1427;48.510;9.060;2024-01-25T00:58:10;45.50;;;2.03;;
2838;SDS011;1427;48.510;9.060;2024-01-25T01:00:38;45.17;;;1.50;;
2838;SDS011;1427;48.510;9.060;2024-01-25T01:03:07;45.00;;;1.30;;
2838;SDS011;1427;48.510;9.060;2024-01-25T01:05:37;46.20;;;3.20;;
2838;SDS011;1427;48.510;9.060;2024-01-25T01:08:06;45.17;;;1.50;;
2838;SDS011;1427;48.510;9.060;2024-01-25T01:10:35;44.97;;;1.50;;
2838;SDS011;1427;48.510;9.060;2024-01-25T01:13:04;45.03;;;1.40;;
2838;SDS011;1427;48.510;9.060;2024-01-25T01:15:32;45.03;;;1.37;;
2838;SDS011;1427;48.510;9.060;2024-01-25T01:18:01;51.13;;;1.67;;
2838;SDS011;1427;48.510;9.060;2024-01-25T01:20:31;45.07;;;1.43;;
2838;SDS011;1427;48.510;9.060;2024-01-25T01:22:59;45.77;;;1.60;;
2838;SDS011;1427;48.510;9.060;2024-01-25T01:25:27;45.57;;;1.77;;
2838;SDS011;1427;48.510;9.060;2024-01-25T01:27:55;45.23;;;1.60;;
2838;SDS011;1427;48.510;9.060;2024-01-25T01:30:25;45.13;;;1.47;;
2838;SDS011;1427;48.510;9.060;2024-01-25T01:32:53;45.20;;;1.30;;
2838;SDS011;1427;48.510;9.060;2024-01-25T01:35:21;48.17;;;2.40;;
2838;SDS011;1427;48.510;9.060;2024-01-25T01:37:49;45.00;;;1.33;;
2838;SDS011;1427;48.510;9.060;2024-01-25T01:40:18;45.57;;;2.07;;
2838;SDS011;1427;48.510;9.060;2024-01-25T01:42:46;44.90;;;1.47;;
2838;SDS011;1427;48.510;9.060;2024-01-25T01:45:14;45.10;;;1.37;;
2838;SDS011;1427;48.510;9.060;2024-01-25T01:47:44;45.00;;;1.40;;
2838;SDS011;1427;48.510;9.060;2024-01-25T01:50:12;44.90;;;1.40;;
2838;SDS011;1427;48.510;9.060;2024-01-25T01:52:41;45.00;;;1.50;;
2838;SDS011;1427;48.510;9.060;2024-01-25T01:55:09;45.07;;;1.30;;
2838;SDS011;1427;48.510;9.060;2024-01-25T01:57:39;45.07;;;1.47;;
2838;SDS011;1427;48.510;9.060;2024-01-25T02:00:08;48.50;;;2.20;;
2838;SDS011;1427;48.510;9.060;2024-01-25T02:02:37;45.20;;;1.50;;
2838;SDS011;1427;48.510;9.060;2024-01-25T02:05:08;44.70;;;1.30;;
2838;SDS011;1427;48.510;9.060;2024-01-25T02:07:37;45.10;;;1.40;;
2838;SDS011;1427;48.510;9.060;2024-01-25T02:10:07;46.20;;;2.33;;
2838;SDS011;1427;48.510;9.060;2024-01-25T02:12:36;45.07;;;1.30;;
2838;SDS011;1427;48.510;9.060;2024-01-25T02:15:05;45.03;;;1.50;;
2838;SDS011;1427;48.510;9.060;2024-01-25T02:17:34;45.07;;;1.47;;
2838;SDS011;1427;48.510;9.060;2024-01-25T02:20:03;45.17;;;1.40;;
2838;SDS011;1427;48.510;9.060;2024-01-25T02:22:33;51.10;;;1.80;;
2838;SDS011;1427;48.510;9.060;2024-01-25T02:25:01;45.13;;;1.63;;
2838;SDS011;1427;48.510;9.060;2024-01-25T02:27:30;45.17;;;1.43;;
2838;SDS011;1427;48.510;9.060;2024-01-25T02:29:58;45.53;;;2.30;;
2838;SDS011;1427;48.510;9.060;2024-01-25T02:32:26;47.80;;;1.70;;
2838;SDS011;1427;48.510;9.060;2024-01-25T02:34:54;45.20;;;1.33;;
2838;SDS011;1427;48.510;9.060;2024-01-25T02:37:22;51.77;;;2.13;;
2838;SDS011;1427;48.510;9.060;2024-01-25T02:39:52;45.00;;;1.40;;
2838;SDS011;1427;48.510;9.060;2024-01-25T02:42:20;44.87;;;1.47;;
2838;SDS011;1427;48.510;9.060;2024-01-25T02:44:48;44.90;;;1.40;;
2838;SDS011;1427;48.510;9.060;2024-01-25T02:47:17;45.13;;;1.43;;
2838;SDS011;1427;48.510;9.060;2024-01-25T02:49:45;45.30;;;1.93;;
2838;SDS011;1427;48.510;9.060;2024-01-25T02:52:14;45.10;;;1.40;;
2838;SDS011;1427;48.510;9.060;2024-01-25T02:54:42;45.17;;;1.20;;
2838;SDS011;1427;48.510;9.060;2024-01-25T02:57:11;57.03;;;1.40;;
2838;SDS011;1427;48.510;9.060;2024-01-25T02:59:39;45.30;;;1.50;;
2838;SDS011;1427;48.510;9.060;2024-01-25T03:02:07;45.27;;;1.57;;
2838;SDS011;1427;48.510;9.060;2024-01-25T03:04:35;44.70;;;1.30;;
2838;SDS011;1427;48.510;9.060;2024-01-25T03:07:04;46.40;;;2.10;;
2838;SDS011;1427;48.510;9.060;2024-01-25T03:09:32;45.20;;;1.40;;
2838;SDS011;1427;48.510;9.060;2024-01-25T03:12:00;45.60;;;1.70;;
2838;SDS011;1427;48.510;9.060;2024-01-25T03:14:30;46.77;;;2.07;;
2838;SDS011;1427;48.510;9.060;2024-01-25T03:16:58;45.47;;;1.70;;
2838;SDS011;1427;48.510;9.060;2024-01-25T03:19:26;44.83;;;1.40;;
2838;SDS011;1427;48.510;9.060;2024-01-25T03:21:55;44.90;;;1.43;;
2838;SDS011;1427;48.510;9.060;2024-01-25T03:24:24;45.47;;;2.00;;
2838;SDS011;1427;48.510;9.060;2024-01-25T03:26:52;45.13;;;1.40;;
2838;SDS011;1427;48.510;9.060;2024-01-25T03:29:20;45.47;;;1.93;;
2838;SDS011;1427;48.510;9.060;2024-01-25T03:31:50;44.93;;;1.40;;
2838;SDS011;1427;48.510;9.060;2024-01-25T03:34:18;44.80;;;1.30;;
2838;SDS011;1427;48.510;9.060;2024-01-25T03:36:46;45.40;;;2.17;;
2838;SDS011;1427;48.510;9.060;2024-01-25T03:39:16;44.97;;;1.20;;
2838;SDS011;1427;48.510;9.060;2024-01-25T03:41:44;47.10;;;1.90;;
2838;SDS011;1427;48.510;9.060;2024-01-25T03:44:12;45.17;;;1.60;;
2838;SDS011;1427;48.510;9.060;2024-01-25T03:46:41;45.07;;;1.70;;
2838;SDS011;1427;48.510;9.060;2024-01-25T03:49:10;45.47;;;1.97;;
2838;SDS011;1427;48.510;9.060;2024-01-25T03:51:38;47.57;;;2.10;;
2838;SDS011;1427;48.510;9.060;2024-01-25T03:54:06;45.13;;;1.43;;
2838;SDS011;1427;48.510;9.060;2024-01-25T03:56:34;44.80;;;1.40;;
2838;SDS011;1427;48.510;9.060;2024-01-25T03:59:02;49.43;;;1.70;;
2838;SDS011;1427;48.510;9.060;2024-01-25T04:01:31;44.40;;;1.53;;
2838;SDS011;1427;48.510;9.060;2024-01-25T04:03:59;45.13;;;1.50;;
2838;SDS011;1427;48.510;9.060;2024-01-25T04:06:29;44.90;;;1.63;;
2838;SDS011;1427;48.510;9.060;2024-01-25T04:08:57;46.40;;;1.90;;
2838;SDS011;1427;48.510;9.060;2024-01-25T04:11:25;44.77;;;1.70;;
2838;SDS011;1427;48.510;9.060;2024-01-25T04:13:54;44.90;;;1.53;;
2838;SDS011;1427;48.510;9.060;2024-01-25T04:16:22;44.90;;;1.47;;
2838;SDS011;1427;48.510;9.060;2024-01-25T04:18:50;44.97;;;1.40;;
2838;SDS011;1427;48.510;9.060;2024-01-25T04:21:18;44.90;;;1.50;;
2838;SDS011;1427;48.510;9.060;2024-01-25T04:23:48;45.20;;;1.90;;
2838;SDS011;1427;48.510;9.060;2024-01-25T04:26:16;44.83;;;1.43;;
2838;SDS011;1427;48.510;9.060;2024-01-25T04:28:44;45.07;;;1.40;;
2838;SDS011;1427;48.510;9.060;2024-01-25T04:31:12;45.80;;;2.00;;
2838;SDS011;1427;48.510;9.060;2024-01-25T04:33:40;45.33;;;1.90;;
2838;SDS011;1427;48.510;9.060;2024-01-25T04:36:14;45.60;;;1.83;;
2838;SDS011;1427;48.510;9.060;2024-01-25T04:38:42;45.33;;;1.53;;
2838;SDS011;1427;48.510;9.060;2024-01-25T04:41:11;44.97;;;1.50;;
2838;SDS011;1427;48.510;9.060;2024-01-25T04:43:39;44.93;;;1.50;;
2838;SDS011;1427;48.510;9.060;2024-01-25T04:46:08;45.33;;;1.90;;
2838;SDS011;1427;48.510;9.060;2024-01-25T04:48:37;45.37;;;1.93;;
2838;SDS011;1427;48.510;9.060;2024-01-25T04:51:06;46.97;;;1.83;;
2838;SDS011;1427;48.510;9.060;2024-01-25T04:53:35;52.90;;;2.47;;
2838;SDS011;1427;48.510;9.060;2024-01-25T04:56:03;44.87;;;1.43;;
2838;SDS011;1427;48.510;9.060;2024-01-25T04:58:33;44.97;;;1.60;;
2838;SDS011;1427;48.510;9.060;2024-01-25T05:01:04;45.07;;;2.10;;
2838;SDS011;1427;48.510;9.060;2024-01-25T05:03:33;44.97;;;1.70;;
2838;SDS011;1427;48.510;9.060;2024-01-25T05:06:02;46.10;;;1.87;;
2838;SDS011;1427;48.510;9.060;2024-01-25T05:08:30;45.07;;;1.73;;
2838;SDS011;1427;48.510;9.060;2024-01-25T05:10:58;44.53;;;1.60;;
2838;SDS011;1427;48.510;9.060;2024-01-25T05:13:27;45.10;;;1.90;;
2838;SDS011;1427;48.510;9.060;2024-01-25T05:15:56;44.80;;;1.63;;
2838;SDS011;1427;48.510;9.060;2024-01-25T05:18:24;49.93;;;1.83;;
2838;SDS011;1427;48.510;9.060;2024-01-25T05:20:53;44.90;;;1.40;;
2838;SDS011;1427;48.510;9.060;2024-01-25T05:23:23;45.03;;;1.60;;
2838;SDS011;1427;48.510;9.060;2024-01-25T05:25:51;44.90;;;2.13;;
2838;SDS011;1427;48.510;9.060;2024-01-25T05:28:20;44.77;;;1.80;;
2838;SDS011;1427;48.510;9.060;2024-01-25T05:30:50;44.30;;;1.50;;
2838;SDS011;1427;48.510;9.060;2024-01-25T05:33:20;44.90;;;1.40;;
2838;SDS011;1427;48.510;9.060;2024-01-25T05:35:48;44.90;;;1.40;;
2838;SDS011;1427;48.510;9.060;2024-01-25T05:38:16;45.23;;;1.60;;
2838;SDS011;1427;48.510;9.060;2024-01-25T05:40:44;45.00;;;1.33;;
2838;SDS011;1427;48.510;9.060;2024-01-25T05:43:12;44.80;;;1.30;;
2838;SDS011;1427;48.510;9.060;2024-01-25T05:45:41;45.77;;;2.00;;
2838;SDS011;1427;48.510;9.060;2024-01-25T05:48:09;44.77;;;1.20;;
2838;SDS011;1427;48.510;9.060;2024-01-25T05:50:39;45.17;;;1.70;;
2838;SDS011;1427;48.510;9.060;2024-01-25T05:53:07;44.60;;;1.20;;
2838;SDS011;1427;48.510;9.060;2024-01-25T05:55:35;45.20;;;1.53;;
2838;SDS011;1427;48.510;9.060;2024-01-25T05:58:03;44.67;;;1.30;;
2838;SDS011;1427;48.510;9.060;2024-01-25T06:00:31;44.67;;;1.20;;
2838;SDS011;1427;48.510;9.060;2024-01-25T06:03:00;44.77;;;1.60;;
2838;SDS011;1427;48.510;9.060;2024-01-25T06:05:28;45.43;;;1.53;;
2838;SDS011;1427;48.510;9.060;2024-01-25T06:07:58;44.87;;;1.53;;
2838;SDS011;1427;48.510;9.060;2024-01-25T06:10:26;44.70;;;1.93;;
2838;SDS011;1427;48.510;9.060;2024-01-25T06:12:55;44.90;;;1.77;;
2838;SDS011;1427;48.510;9.060;2024-01-25T06:15:23;45.53;;;1.90;;
2838;SDS011;1427;48.510;9.060;2024-01-25T06:17:51;45.37;;;2.10;;
2838;SDS011;1427;48.510;9.060;2024-01-25T06:20:19;45.13;;;1.53;;
2838;SDS011;1427;48.510;9.060;2024-01-25T06:22:47;50.53;;;2.90;;
2838;SDS011;1427;48.510;9.060;2024-01-25T06:25:17;44.67;;;1.60;;
2838;SDS011;1427;48.510;9.060;2024-01-25T06:27:45;45.20;;;1.47;;
2838;SDS011;1427;48.510;9.060;2024-01-25T06:30:15;45.07;;;1.20;;
2838;SDS011;1427;48.510;9.060;2024-01-25T06:32:43;44.87;;;1.63;;
2838;SDS011;1427;48.510;9.060;2024-01-25T06:35:11;44.70;;;1.50;;
2838;SDS011;1427;48.510;9.060;2024-01-25T06:37:39;45.13;;;1.80;;
2838;SDS011;1427;48.510;9.060;2024-01-25T06:40:08;45.00;;;1.70;;
2838;SDS011;1427;48.510;9.060;2024-01-25T06:42:38;47.43;;;2.03;;
2838;SDS011;1427;48.510;9.060;2024-01-25T06:45:06;44.77;;;1.40;;
2838;SDS011;1427;48.510;9.060;2024-01-25T06:47:34;44.90;;;1.40;;
2838;SDS011;1427;48.510;9.060;2024-01-25T06:50:03;44.90;;;1.40;;
2838;SDS011;1427;48.510;9.060;2024-01-25T06:52:32;44.83;;;1.50;;
2838;SDS011;1427;48.510;9.060;2024-01-25T06:55:01;45.53;;;2.07;;
2838;SDS011;1427;48.510;9.060;2024-01-25T06:57:29;45.03;;;1.70;;
2838;SDS011;1427;48.510;9.060;2024-01-25T06:59:59;44.97;;;1.50;;
2838;SDS011;1427;48.510;9.060;2024-01-25T07:02:27;44.80;;;1.60;;
2838;SDS011;1427;48.510;9.060;2024-01-25T07:04:57;44.73;;;1.20;;
2838;SDS011;1427;48.510;9.060;2024-01-25T07:07:28;45.27;;;2.37;;
2838;SDS011;1427;48.510;9.060;2024-01-25T07:09:58;46.10;;;3.87;;
2838;SDS011;1427;48.510;9.060;2024-01-25T07:12:27;45.90;;;3.07;;
2838;SDS011;1427;48.510;9.060;2024-01-25T07:14:58;45.93;;;3.30;;
2838;SDS011;1427;48.510;9.060;2024-01-25T07:17:26;45.77;;;3.03;;
2838;SDS011;1427;48.510;9.060;2024-01-25T07:19:54;45.47;;;2.53;;
2838;SDS011;1427;48.510;9.060;2024-01-25T07:22:23;45.63;;;3.30;;
2838;SDS011;1427;48.510;9.060;2024-01-25T07:24:51;46.10;;;3.33;;
2838;SDS011;1427;48.510;9.060;2024-01-25T07:27:19;53.20;;;3.40;;
2838;SDS011;1427;48.510;9.060;2024-01-25T07:29:47;46.63;;;3.60;;
2838;SDS011;1427;48.510;9.060;2024-01-25T07:32:17;46.20;;;3.17;;
2838;SDS011;1427;48.510;9.060;2024-01-25T07:34:46;45.80;;;2.80;;
2838;SDS011;1427;48.510;9.060;2024-01-25T07:37:14;45.57;;;3.00;;
2838;SDS011;1427;48.510;9.060;2024-01-25T07:39:42;69.20;;;4.30;;
2838;SDS011;1427;48.510;9.060;2024-01-25T07:42:10;48.73;;;3.90;;
2838;SDS011;1427;48.510;9.060;2024-01-25T07:44:38;46.13;;;3.30;;
2838;SDS011;1427;48.510;9.060;2024-01-25T07:47:06;46.47;;;3.83;;
2838;SDS011;1427;48.510;9.060;2024-01-25T07:49:36;47.93;;;4.17;;
2838;SDS011;1427;48.510;9.060;2024-01-25T07:52:04;47.67;;;3.97;;
2838;SDS011;1427;48.510;9.060;2024-01-25T07:54:32;46.20;;;3.37;;
2838;SDS011;1427;48.510;9.060;2024-01-25T07:57:00;45.87;;;3.10;;
2838;SDS011;1427;48.510;9.060;2024-01-25T07:59:28;45.67;;;2.83;;
2838;SDS011;1427;48.510;9.060;2024-01-25T08:02:00;48.07;;;4.00;;
2838;SDS011;1427;48.510;9.060;2024-01-25T08:04:28;45.63;;;3.00;;
2838;SDS011;1427;48.510;9.060;2024-01-25T08:06:58;46.10;;;2.97;;
2838;SDS011;1427;48.510;9.060;2024-01-25T08:09:27;45.60;;;2.80;;
2838;SDS011;1427;48.510;9.060;2024-01-25T08:11:58;46.50;;;3.50;;
2838;SDS011;1427;48.510;9.060;2024-01-25T08:14:26;46.10;;;3.97;;
2838;SDS011;1427;48.510;9.060;2024-01-25T08:16:54;45.90;;;2.90;;
2838;SDS011;1427;48.510;9.060;2024-01-25T08:19:25;47.00;;;4.10;;
2838;SDS011;1427;48.510;9.060;2024-01-25T08:21:55;47.60;;;3.03;;
2838;SDS011;1427;48.510;9.060;2024-01-25T08:24:25;45.90;;;3.00;;
2838;SDS011;1427;48.510;9.060;2024-01-25T08:26:53;46.63;;;4.23;;
2838;SDS011;1427;48.510;9.060;2024-01-25T08:29:24;46.87;;;3.33;;
2838;SDS011;1427;48.510;9.060;2024-01-25T08:31:53;46.77;;;3.90;;
2838;SDS011;1427;48.510;9.060;2024-01-25T08:34:21;46.17;;;3.30;;
2838;SDS011;1427;48.510;9.060;2024-01-25T08:36:49;48.47;;;3.43;;
2838;SDS011;1427;48.510;9.060;2024-01-25T08:39:17;58.83;;;3.10;;
2838;SDS011;1427;48.510;9.060;2024-01-25T08:41:48;46.30;;;3.70;;
2838;SDS011;1427;48.510;9.060;2024-01-25T08:44:17;48.33;;;4.10;;
2838;SDS011;1427;48.510;9.060;2024-01-25T08:46:45;46.93;;;3.37;;
2838;SDS011;1427;48.510;9.060;2024-01-25T08:49:16;46.27;;;3.10;;
2838;SDS011;1427;48.510;9.060;2024-01-25T08:51:45;46.80;;;4.10;;
2838;SDS011;1427;48.510;9.060;2024-01-25T08:54:13;46.20;;;3.00;;
2838;SDS011;1427;48.510;9.060;2024-01-25T08:56:41;48.70;;;3.90;;
2838;SDS011;1427;48.510;9.060;2024-01-25T08:59:11;50.83;;;4.50;;
2838;SDS011;1427;48.510;9.060;2024-01-25T09:01:42;48.07;;;3.30;;
2838;SDS011;1427;48.510;9.060;2024-01-25T09:04:10;46.30;;;3.10;;
2838;SDS011;1427;48.510;9.060;2024-01-25T09:06:40;47.53;;;4.07;;
2838;SDS011;1427;48.510;9.060;2024-01-25T09:09:09;46.60;;;3.20;;
2838;SDS011;1427;48.510;9.060;2024-01-25T09:11:39;46.30;;;2.87;;
2838;SDS011;1427;48.510;9.060;2024-01-25T09:14:08;50.53;;;3.60;;
2838;SDS011;1427;48.510;9.060;2024-01-25T09:16:40;62.20;;;3.93;;
2838;SDS011;1427;48.510;9.060;2024-01-25T09:19:09;46.50;;;3.17;;
2838;SDS011;1427;48.510;9.060;2024-01-25T09:21:41;46.77;;;3.37;;
2838;SDS011;1427;48.510;9.060;2024-01-25T09:24:10;46.40;;;3.30;;
2838;SDS011;1427;48.510;9.060;2024-01-25T09:26:38;46.73;;;3.53;;
2838;SDS011;1427;48.510;9.060;2024-01-25T09:29:06;47.30;;;4.23;;
2838;SDS011;1427;48.510;9.060;2024-01-25T09:31:34;50.13;;;3.50;;
2838;SDS011;1427;48.510;9.060;2024-01-25T09:34:04;46.57;;;3.33;;
2838;SDS011;1427;48.510;9.060;2024-01-25T09:36:33;49.70;;;3.20;;
2838;SDS011;1427;48.510;9.060;2024-01-25T09:39:01;47.13;;;4.03;;
2838;SDS011;1427;48.510;9.060;2024-01-25T09:41:30;46.67;;;3.13;;
2838;SDS011;1427;48.510;9.060;2024-01-25T09:43:58;47.67;;;3.70;;
2838;SDS011;1427;48.510;9.060;2024-01-25T09:46:26;47.10;;;3.23;;
2838;SDS011;1427;48.510;9.060;2024-01-25T09:48:55;47.33;;;5.13;;
2838;SDS011;1427;48.510;9.060;2024-01-25T09:51:25;54.90;;;4.33;;
2838;SDS011;1427;48.510;9.060;2024-01-25T09:53:53;46.20;;;2.97;;
2838;SDS011;1427;48.510;9.060;2024-01-25T09:56:22;50.03;;;4.33;;
2838;SDS011;1427;48.510;9.060;2024-01-25T09:58:50;47.73;;;3.33;;
2838;SDS011;1427;48.510;9.060;2024-01-25T10:01:19;48.80;;;4.67;;
2838;SDS011;1427;48.510;9.060;2024-01-25T10:03:47;51.87;;;3.80;;
2838;SDS011;1427;48.510;9.060;2024-01-25T10:06:16;53.33;;;4.20;;
2838;SDS011;1427;48.510;9.060;2024-01-25T10:08:46;46.17;;;3.07;;
2838;SDS011;1427;48.510;9.060;2024-01-25T10:11:14;52.03;;;5.53;;
2838;SDS011;1427;48.510;9.060;2024-01-25T10:13:43;47.27;;;3.40;;
2838;SDS011;1427;48.510;9.060;2024-01-25T10:16:13;52.10;;;4.13;;
2838;SDS011;1427;48.510;9.060;2024-01-25T10:18:43;47.53;;;3.30;;
2838;SDS011;1427;48.510;9.060;2024-01-25T10:21:13;46.13;;;2.87;;
2838;SDS011;1427;48.510;9.060;2024-01-25T10:23:43;59.90;;;4.53;;
2838;SDS011;1427;48.510;9.060;2024-01-25T10:26:15;46.33;;;3.07;;
2838;SDS011;1427;48.510;9.060;2024-01-25T10:28:49;49.57;;;3.20;;
2838;SDS011;1427;48.510;9.060;2024-01-25T10:31:24;52.83;;;3.40;;
2838;SDS011;1427;48.510;9.060;2024-01-25T10:33:52;46.87;;;3.83;;
2838;SDS011;1427;48.510;9.060;2024-01-25T10:36:21;50.23;;;4.03;;
2838;SDS011;1427;48.510;9.060;2024-01-25T10:38:49;48.90;;;5.17;;
2838;SDS011;1427;48.510;9.060;2024-01-25T10:41:20;47.57;;;3.93;;
2838;SDS011;1427;48.510;9.060;2024-01-25T10:43:54;49.47;;;4.07;;
2838;SDS011;1427;48.510;9.060;2024-01-25T10:46:22;50.10;;;3.70;;
2838;SDS011;1427;48.510;9.060;2024-01-25T10:48:51;48.83;;;3.80;;
2838;SDS011;1427;48.510;9.060;2024-01-25T10:51:21;55.67;;;4.73;;
2838;SDS011;1427;48.510;9.060;2024-01-25T10:53:49;51.40;;;3.90;;
2838;SDS011;1427;48.510;9.060;2024-01-25T10:56:20;47.17;;;3.73;;
2838;SDS011;1427;48.510;9.060;2024-01-25T10:58:48;48.73;;;3.67;;
2838;SDS011;1427;48.510;9.060;2024-01-25T11:01:17;59.70;;;4.30;;
2838;SDS011;1427;48.510;9.060;2024-01-25T11:03:45;47.07;;;3.87;;
2838;SDS011;1427;48.510;9.060;2024-01-25T11:06:15;49.73;;;4.13;;
2838;SDS011;1427;48.510;9.060;2024-01-25T11:08:47;46.20;;;3.30;;
2838;SDS011;1427;48.510;9.060;2024-01-25T11:11:16;46.77;;;3.23;;
2838;SDS011;1427;48.510;9.060;2024-01-25T11:13:47;52.70;;;4.10;;
2838;SDS011;1427;48.510;9.060;2024-01-25T11:16:18;48.47;;;3.33;;
2838;SDS011;1427;48.510;9.060;2024-01-25T11:18:55;57.97;;;4.33;;
2838;SDS011;1427;48.510;9.060;2024-01-25T11:21:26;47.57;;;2.80;;
2838;SDS011;1427;48.510;9.060;2024-01-25T11:24:01;47.10;;;3.60;;
2838;SDS011;1427;48.510;9.060;2024-01-25T11:26:33;48.70;;;3.50;;
2838;SDS011;1427;48.510;9.060;2024-01-25T11:29:01;49.73;;;3.60;;
2838;SDS011;1427;48.510;9.060;2024-01-25T11:31:29;48.43;;;3.83;;
2838;SDS011;1427;48.510;9.060;2024-01-25T11:33:58;50.70;;;4.20;;
2838;SDS011;1427;48.510;9.060;2024-01-25T11:36:27;48.40;;;3.73;;
2838;SDS011;1427;48.510;9.060;2024-01-25T11:38:55;52.17;;;3.53;;
2838;SDS011;1427;48.510;9.060;2024-01-25T11:41:24;46.80;;;3.23;;
2838;SDS011;1427;48.510;9.060;2024-01-25T11:43:54;49.33;;;4.03;;
2838;SDS011;1427;48.510;9.060;2024-01-25T11:46:22;59.67;;;6.57;;
2838;SDS011;1427;48.510;9.060;2024-01-25T11:48:52;51.13;;;4.80;;
2838;SDS011;1427;48.510;9.060;2024-01-25T11:51:20;46.90;;;3.60;;
2838;SDS011;1427;48.510;9.060;2024-01-25T11:53:49;48.30;;;4.03;;
2838;SDS011;1427;48.510;9.060;2024-01-25T11:56:17;48.47;;;3.10;;
2838;SDS011;1427;48.510;9.060;2024-01-25T11:58:48;47.87;;;3.37;;
2838;SDS011;1427;48.510;9.060;2024-01-25T12:01:19;49.20;;;3.43;;
2838;SDS011;1427;48.510;9.060;2024-01-25T12:03:47;49.67;;;4.40;;
2838;SDS011;1427;48.510;9.060;2024-01-25T12:06:16;49.20;;;4.23;;
2838;SDS011;1427;48.510;9.060;2024-01-25T12:08:45;49.17;;;3.83;;
2838;SDS011;1427;48.510;9.060;2024-01-25T12:11:14;48.77;;;4.07;;
2838;SDS011;1427;48.510;9.060;2024-01-25T12:13:44;46.47;;;3.10;;
2838;SDS011;1427;48.510;9.060;2024-01-25T12:16:14;47.10;;;3.37;;
2838;SDS011;1427;48.510;9.060;2024-01-25T12:18:44;55.33;;;5.40;;
2838;SDS011;1427;48.510;9.060;2024-01-25T12:21:13;51.80;;;4.00;;
2838;SDS011;1427;48.510;9.060;2024-01-25T12:23:42;55.47;;;5.40;;
2838;SDS011;1427;48.510;9.060;2024-01-25T12:26:10;48.07;;;3.40;;
2838;SDS011;1427;48.510;9.060;2024-01-25T12:28:39;47.37;;;3.47;;
2838;SDS011;1427;48.510;9.060;2024-01-25T12:31:08;48.30;;;3.70;;
2838;SDS011;1427;48.510;9.060;2024-01-25T12:33:36;46.50;;;3.17;;
2838;SDS011;1427;48.510;9.060;2024-01-25T12:36:06;56.63;;;4.90;;
2838;SDS011;1427;48.510;9.060;2024-01-25T12:38:35;47.53;;;3.57;;
2838;SDS011;1427;48.510;9.060;2024-01-25T12:41:03;49.00;;;3.60;;
2838;SDS011;1427;48.510;9.060;2024-01-25T12:43:31;49.00;;;4.03;;
2838;SDS011;1427;48.510;9.060;2024-01-25T12:46:00;48.97;;;4.50;;
2838;SDS011;1427;48.510;9.060;2024-01-25T12:48:43;46.87;;;3.87;;
2838;SDS011;1427;48.510;9.060;2024-01-25T12:51:15;48.17;;;3.10;;
2838;SDS011;1427;48.510;9.060;2024-01-25T12:53:43;47.90;;;4.53;;
2838;SDS011;1427;48.510;9.060;2024-01-25T12:56:12;49.50;;;4.00;;
2838;SDS011;1427;48.510;9.060;2024-01-25T12:58:40;49.60;;;3.30;;
2838;SDS011;1427;48.510;9.060;2024-01-25T13:01:09;47.17;;;3.73;;
2838;SDS011;1427;48.510;9.060;2024-01-25T13:03:37;49.80;;;4.73;;
2838;SDS011;1427;48.510;9.060;2024-01-25T13:06:06;48.60;;;3.60;;
2838;SDS011;1427;48.510;9.060;2024-01-25T13:08:35;47.93;;;5.30;;
2838;SDS011;1427;48.510;9.060;2024-01-25T13:11:03;49.13;;;4.00;;
2838;SDS011;1427;48.510;9.060;2024-01-25T13:13:31;50.23;;;4.40;;
2838;SDS011;1427;48.510;9.060;2024-01-25T13:15:59;61.13;;;4.20;;
2838;SDS011;1427;48.510;9.060;2024-01-25T13:18:28;47.87;;;3.30;;
2838;SDS011;1427;48.510;9.060;2024-01-25T13:20:56;47.97;;;4.93;;
2838;SDS011;1427;48.510;9.060;2024-01-25T13:23:24;49.60;;;4.37;;
2838;SDS011;1427;48.510;9.060;2024-01-25T13:25:53;51.57;;;4.10;;
2838;SDS011;1427;48.510;9.060;2024-01-25T13:28:21;47.10;;;4.07;;
2838;SDS011;1427;48.510;9.060;2024-01-25T13:30:49;47.23;;;3.57;;
2838;SDS011;1427;48.510;9.060;2024-01-25T13:33:20;49.33;;;3.90;;
2838;SDS011;1427;48.510;9.060;2024-01-25T13:35:49;48.50;;;5.07;;
2838;SDS011;1427;48.510;9.060;2024-01-25T13:38:17;48.07;;;3.37;;
2838;SDS011;1427;48.510;9.060;2024-01-25T13:40:45;49.00;;;3.73;;
2838;SDS011;1427;48.510;9.060;2024-01-25T13:43:14;53.13;;;3.93;;
2838;SDS011;1427;48.510;9.060;2024-01-25T13:45:42;48.37;;;4.10;;
2838;SDS011;1427;48.510;9.060;2024-01-25T13:48:10;54.33;;;4.53;;
2838;SDS011;1427;48.510;9.060;2024-01-25T13:50:38;46.67;;;3.47;;
2838;SDS011;1427;48.510;9.060;2024-01-25T13:53:07;52.83;;;4.20;;
2838;SDS011;1427;48.510;9.060;2024-01-25T13:55:35;46.93;;;3.57;;
2838;SDS011;1427;48.510;9.060;2024-01-25T13:58:03;47.07;;;4.13;;
2838;SDS011;1427;48.510;9.060;2024-01-25T14:00:32;48.20;;;3.60;;
2838;SDS011;1427;48.510;9.060;2024-01-25T14:03:00;47.77;;;3.23;;
2838;SDS011;1427;48.510;9.060;2024-01-25T14:05:28;48.70;;;4.00;;
2838;SDS011;1427;48.510;9.060;2024-01-25T14:07:57;47.50;;;4.00;;
2838;SDS011;1427;48.510;9.060;2024-01-25T14:10:26;46.27;;;3.20;;
2838;SDS011;1427;48.510;9.060;2024-01-25T14:12:56;48.27;;;3.90;;
2838;SDS011;1427;48.510;9.060;2024-01-25T14:15:24;47.70;;;3.37;;
2838;SDS011;1427;48.510;9.060;2024-01-25T14:17:54;48.60;;;3.30;;
2838;SDS011;1427;48.510;9.060;2024-01-25T14:20:22;47.20;;;3.60;;
2838;SDS011;1427;48.510;9.060;2024-01-25T14:22:50;46.30;;;3.33;;
2838;SDS011;1427;48.510;9.060;2024-01-25T14:25:18;47.83;;;3.53;;
2838;SDS011;1427;48.510;9.060;2024-01-25T14:27:46;46.60;;;3.40;;
2838;SDS011;1427;48.510;9.060;2024-01-25T14:30:16;46.83;;;3.33;;
2838;SDS011;1427;48.510;9.060;2024-01-25T14:32:44;46.50;;;3.63;;
2838;SDS011;1427;48.510;9.060;2024-01-25T14:35:15;46.73;;;3.63;;
2838;SDS011;1427;48.510;9.060;2024-01-25T14:37:43;46.13;;;3.17;;
2838;SDS011;1427;48.510;9.060;2024-01-25T14:40:11;51.70;;;3.80;;
2838;SDS011;1427;48.510;9.060;2024-01-25T14:42:59;48.80;;;3.60;;
2838;SDS011;1427;48.510;9.060;2024-01-25T14:45:28;48.90;;;3.33;;
2838;SDS011;1427;48.510;9.060;2024-01-25T14:47:56;46.67;;;3.80;;
2838;SDS011;1427;48.510;9.060;2024-01-25T14:50:26;46.90;;;3.60;;
2838;SDS011;1427;48.510;9.060;2024-01-25T14:52:54;46.07;;;2.77;;
2838;SDS011;1427;48.510;9.060;2024-01-25T14:55:22;46.80;;;3.50;;
2838;SDS011;1427;48.510;9.060;2024-01-25T14:57:50;46.53;;;3.37;;
2838;SDS011;1427;48.510;9.060;2024-01-25T15:00:19;46.87;;;3.60;;
2838;SDS011;1427;48.510;9.060;2024-01-25T15:02:47;46.63;;;3.50;;
2838;SDS011;1427;48.510;9.060;2024-01-25T15:05:15;48.20;;;3.27;;
2838;SDS011;1427;48.510;9.060;2024-01-25T15:07:45;50.10;;;4.60;;
2838;SDS011;1427;48.510;9.060;2024-01-25T15:10:13;46.87;;;4.00;;